createdAt,value
2017-10-16T00:00:31.562Z,25.53
2017-10-16T00:03:01.362Z,30.43
2017-10-16T00:05:29.654Z,28.00
2017-10-16T00:07:58.767Z,25.57
2017-10-16T00:10:27.824Z,27.20
2017-10-16T00:12:56.118Z,21.90
2017-10-16T00:15:25.482Z,24.70
2017-10-16T00:17:54.548Z,28.03
2017-10-16T00:20:22.829Z,32.60
2017-10-16T00:22:51.925Z,30.53
2017-10-16T00:25:21.350Z,30.07
2017-10-16T00:27:50.406Z,32.07
2017-10-16T00:30:18.746Z,49.77
2017-10-16T00:32:47.035Z,45.23
2017-10-16T00:35:16.095Z,24.73
2017-10-16T00:39:44.966Z,29.57
2017-10-16T00:42:13.254Z,22.40
2017-10-16T00:44:41.547Z,23.60
2017-10-16T00:47:09.906Z,21.50
2017-10-16T00:49:38.205Z,29.20
2017-10-16T00:52:06.486Z,23.63
2017-10-16T00:54:34.823Z,20.10
2017-10-16T00:57:03.159Z,21.33
2017-10-16T00:59:31.837Z,27.23
2017-10-16T01:02:01.571Z,26.73
2017-10-16T01:04:31.219Z,25.20
2017-10-16T01:06:59.389Z,29.00
2017-10-16T01:09:27.749Z,24.90
2017-10-16T01:11:56.435Z,25.43
2017-10-16T01:14:25.492Z,27.77
2017-10-16T01:16:55.465Z,24.80
2017-10-16T01:19:23.642Z,25.33
2017-10-16T01:21:53.071Z,29.97
2017-10-16T01:24:21.682Z,26.50
2017-10-16T01:26:49.978Z,23.43
2017-10-16T01:29:19.402Z,26.17
2017-10-16T01:31:47.770Z,22.13
2017-10-16T01:34:16.823Z,27.13
2017-10-16T01:36:45.882Z,24.10
2017-10-16T01:39:14.215Z,24.10
2017-10-16T01:41:42.894Z,23.87
2017-10-16T01:44:12.690Z,36.60
2017-10-16T01:46:41.343Z,38.90
2017-10-16T01:49:10.758Z,28.00
2017-10-16T01:51:39.046Z,19.87
2017-10-16T01:54:07.390Z,19.27
2017-10-16T01:56:35.674Z,25.13
2017-10-16T01:59:05.318Z,33.60
2017-10-16T02:01:35.039Z,51.40
2017-10-16T02:04:04.086Z,40.57
2017-10-16T02:06:33.142Z,29.27
2017-10-16T02:09:01.468Z,25.87
2017-10-16T02:11:29.750Z,28.13
2017-10-16T02:13:59.181Z,26.00
2017-10-16T02:16:27.506Z,25.73
2017-10-16T02:18:55.795Z,28.43
2017-10-16T02:21:24.078Z,33.90
2017-10-16T02:23:52.422Z,25.57
2017-10-16T02:26:20.706Z,29.33
2017-10-16T02:28:50.334Z,28.90
2017-10-16T02:31:20.050Z,37.60
2017-10-16T02:33:48.331Z,26.87
2017-10-16T02:36:17.373Z,21.40
2017-10-16T02:38:46.467Z,21.83
2017-10-16T02:41:16.111Z,33.00
2017-10-16T02:43:44.662Z,34.23
2017-10-16T02:46:13.016Z,32.93
2017-10-16T02:48:42.805Z,27.43
2017-10-16T02:51:11.095Z,33.00
2017-10-16T02:53:39.418Z,32.33
2017-10-16T02:56:07.706Z,27.50
2017-10-16T02:58:36.003Z,24.47
2017-10-16T03:01:05.695Z,21.77
2017-10-16T03:03:33.856Z,21.57
2017-10-16T03:06:02.139Z,23.70
2017-10-16T03:08:30.491Z,26.60
2017-10-16T03:11:00.130Z,27.00
2017-10-16T03:13:29.641Z,24.43
2017-10-16T03:15:57.857Z,21.93
2017-10-16T03:18:26.923Z,25.73
2017-10-16T03:20:55.207Z,24.77
2017-10-16T03:23:23.583Z,25.90
2017-10-16T03:25:54.767Z,52.10
2017-10-16T03:28:23.111Z,27.73
2017-10-16T03:30:51.470Z,24.40
2017-10-16T03:33:19.797Z,23.97
2017-10-16T03:35:48.119Z,26.40
2017-10-16T03:38:17.201Z,24.47
2017-10-16T03:40:45.516Z,80.83
2017-10-16T03:43:19.393Z,114.10
2017-10-16T03:45:49.827Z,108.37
2017-10-16T03:48:18.146Z,103.93
2017-10-16T03:50:46.855Z,52.90
2017-10-16T03:53:16.523Z,43.50
2017-10-16T03:55:54.908Z,34.53
2017-10-16T03:58:23.507Z,53.83
2017-10-16T04:03:32.873Z,46.60
2017-10-16T04:06:02.310Z,25.17
2017-10-16T04:08:31.464Z,28.60
2017-10-16T04:11:00.983Z,39.60
2017-10-16T04:13:29.270Z,26.07
2017-10-16T04:15:58.704Z,21.37
2017-10-16T04:18:28.217Z,23.67
2017-10-16T04:20:57.292Z,26.33
2017-10-16T04:23:25.588Z,27.03
2017-10-16T04:25:54.230Z,33.20
2017-10-16T04:28:23.550Z,30.77
2017-10-16T04:30:51.844Z,24.13
2017-10-16T04:33:20.370Z,27.97
2017-10-16T04:35:48.781Z,37.20
2017-10-16T04:38:18.488Z,46.80
2017-10-16T04:40:47.111Z,34.30
2017-10-16T04:45:50.319Z,26.40
2017-10-16T04:48:18.658Z,22.47
2017-10-16T04:50:46.983Z,46.57
2017-10-16T04:53:15.392Z,29.93
2017-10-16T04:55:45.235Z,31.53
2017-10-16T04:58:14.034Z,41.73
2017-10-16T05:00:43.407Z,36.97
2017-10-16T05:03:11.932Z,44.23
2017-10-16T05:05:40.305Z,68.40
2017-10-16T05:08:09.023Z,35.37
2017-10-16T05:10:38.075Z,32.80
2017-10-16T05:13:07.888Z,30.13
2017-10-16T05:15:36.267Z,26.23
2017-10-16T05:18:05.840Z,32.10
2017-10-16T05:20:35.651Z,30.60
2017-10-16T05:23:05.155Z,42.93
2017-10-16T05:25:33.856Z,34.73
2017-10-16T05:28:02.171Z,26.13
2017-10-16T05:30:30.537Z,32.40
2017-10-16T05:32:58.856Z,29.30
2017-10-16T05:35:31.122Z,30.23
2017-10-16T05:37:59.434Z,31.10
2017-10-16T05:40:27.743Z,36.67
2017-10-16T05:42:56.078Z,36.17
2017-10-16T05:45:25.160Z,31.33
2017-10-16T05:47:58.703Z,45.47
2017-10-16T05:50:31.335Z,29.57
2017-10-16T05:53:07.384Z,22.43
2017-10-16T05:55:36.070Z,20.07
2017-10-16T05:58:04.764Z,19.93
2017-10-16T06:00:33.851Z,21.10
2017-10-16T06:03:02.176Z,21.83
2017-10-16T06:05:31.258Z,23.00
2017-10-16T06:07:59.994Z,33.20
2017-10-16T06:10:28.336Z,29.10
2017-10-16T06:12:56.658Z,34.57
2017-10-16T06:15:26.640Z,25.37
2017-10-16T06:17:55.194Z,55.20
2017-10-16T06:20:23.507Z,56.70
2017-10-16T06:22:52.622Z,32.07
2017-10-16T06:25:20.902Z,30.57
2017-10-16T06:27:52.463Z,27.57
2017-10-16T06:30:21.149Z,29.63
2017-10-16T06:32:49.447Z,29.90
2017-10-16T06:35:18.371Z,26.23
2017-10-16T06:37:47.078Z,34.77
2017-10-16T06:40:16.127Z,31.37
2017-10-16T06:42:45.827Z,66.67
2017-10-16T06:45:14.005Z,47.10
2017-10-16T06:47:42.715Z,38.30
2017-10-16T06:50:11.847Z,29.30
2017-10-16T06:52:40.152Z,35.53
2017-10-16T06:55:08.448Z,111.30
2017-10-16T06:57:37.964Z,51.93
2017-10-16T07:00:06.255Z,37.23
2017-10-16T07:02:34.550Z,26.13
2017-10-16T07:05:02.895Z,22.60
2017-10-16T07:07:31.217Z,28.67
2017-10-16T07:10:01.033Z,27.60
2017-10-16T07:12:29.389Z,35.70
2017-10-16T07:14:57.695Z,22.17
2017-10-16T07:17:25.999Z,22.50
2017-10-16T07:19:54.338Z,22.10
2017-10-16T07:22:22.640Z,21.67
2017-10-16T07:24:50.972Z,22.27
2017-10-16T07:27:20.703Z,23.33
2017-10-16T07:29:49.031Z,24.20
2017-10-16T07:32:17.720Z,27.23
2017-10-16T07:34:46.835Z,25.53
2017-10-16T07:37:15.899Z,16.73
2017-10-16T07:39:44.202Z,18.30
2017-10-16T07:42:12.538Z,21.40
2017-10-16T07:44:40.826Z,33.20
2017-10-16T07:47:09.609Z,82.07
2017-10-16T07:49:39.635Z,46.53
2017-10-16T07:52:08.690Z,26.30
2017-10-16T07:54:37.003Z,86.73
2017-10-16T07:57:05.347Z,50.40
2017-10-16T07:59:34.421Z,27.10
2017-10-16T08:02:02.756Z,93.00
2017-10-16T08:04:31.243Z,62.83
2017-10-16T08:07:00.294Z,28.73
2017-10-16T08:09:29.347Z,22.67
2017-10-16T08:11:57.688Z,22.33
2017-10-16T08:14:26.003Z,35.80
2017-10-16T08:16:54.316Z,44.63
2017-10-16T08:19:22.687Z,49.67
2017-10-16T08:21:51.800Z,24.83
2017-10-16T08:24:21.222Z,24.70
2017-10-16T08:26:50.482Z,23.30
2017-10-16T08:29:19.181Z,20.43
2017-10-16T08:31:48.608Z,37.23
2017-10-16T08:34:16.991Z,33.80
2017-10-16T08:36:45.282Z,21.63
2017-10-16T08:39:13.640Z,18.23
2017-10-16T08:41:42.069Z,17.53
2017-10-16T08:44:11.118Z,18.97
2017-10-16T08:46:39.810Z,25.37
2017-10-16T08:49:08.415Z,23.60
2017-10-16T08:51:37.478Z,21.30
2017-10-16T08:54:05.763Z,17.93
2017-10-16T08:56:34.102Z,23.57
2017-10-16T08:59:03.547Z,24.43
2017-10-16T09:01:31.826Z,21.30
2017-10-16T09:04:00.207Z,21.90
2017-10-16T09:06:29.713Z,23.97
2017-10-16T09:08:58.024Z,20.00
2017-10-16T09:11:26.399Z,16.13
2017-10-16T09:13:55.450Z,16.03
2017-10-16T09:16:23.738Z,19.97
2017-10-16T09:18:53.444Z,26.93
2017-10-16T09:21:21.906Z,28.97
2017-10-16T09:23:50.191Z,20.73
2017-10-16T09:26:18.518Z,21.90
2017-10-16T09:28:46.822Z,18.23
2017-10-16T09:31:15.122Z,16.30
2017-10-16T09:33:43.479Z,16.90
2017-10-16T09:36:13.271Z,18.30
2017-10-16T09:38:41.802Z,16.30
2017-10-16T09:41:10.155Z,15.00
2017-10-16T09:43:38.456Z,15.33
2017-10-16T09:46:06.746Z,16.47
2017-10-16T09:48:35.867Z,14.83
2017-10-16T09:51:04.155Z,14.60
2017-10-16T09:53:33.216Z,17.83
2017-10-16T09:56:01.582Z,15.30
2017-10-16T09:58:31.061Z,17.73
2017-10-16T10:00:59.359Z,14.80
2017-10-16T10:03:27.744Z,14.03
2017-10-16T10:05:56.070Z,14.87
2017-10-16T10:08:24.894Z,16.93
2017-10-16T10:10:54.091Z,12.80
2017-10-16T10:13:22.803Z,14.07
2017-10-16T10:15:51.159Z,15.00
2017-10-16T10:18:20.274Z,13.40
2017-10-16T10:20:49.342Z,15.90
2017-10-16T10:23:17.661Z,16.83
2017-10-16T10:25:46.015Z,17.20
2017-10-16T10:28:15.450Z,16.23
2017-10-16T10:30:44.505Z,15.93
2017-10-16T10:33:12.843Z,14.33
2017-10-16T10:35:42.651Z,13.97
2017-10-16T10:38:10.940Z,15.57
2017-10-16T10:40:39.588Z,15.67
2017-10-16T10:43:07.874Z,14.23
2017-10-16T10:45:36.158Z,12.97
2017-10-16T10:48:04.483Z,16.40
2017-10-16T10:50:33.903Z,11.73
2017-10-16T10:53:02.203Z,21.57
2017-10-16T10:55:30.944Z,15.47
2017-10-16T10:57:59.231Z,21.40
2017-10-16T11:00:28.366Z,16.70
2017-10-16T11:02:57.176Z,14.60
2017-10-16T11:05:25.461Z,12.20
2017-10-16T11:07:53.766Z,13.20
2017-10-16T11:10:22.408Z,13.83
2017-10-16T11:12:50.690Z,12.77
2017-10-16T11:15:20.491Z,13.97
2017-10-16T11:17:48.847Z,11.27
2017-10-16T11:20:17.161Z,16.50
2017-10-16T11:22:46.239Z,11.70
2017-10-16T11:25:14.643Z,12.03
2017-10-16T11:27:42.967Z,13.73
2017-10-16T11:30:11.276Z,11.93
2017-10-16T11:32:39.610Z,10.77
2017-10-16T11:35:08.677Z,11.70
2017-10-16T11:37:36.962Z,12.37
2017-10-16T11:40:05.318Z,10.80
2017-10-16T11:42:34.366Z,12.03
2017-10-16T11:45:02.679Z,13.07
2017-10-16T11:47:31.028Z,15.27
2017-10-16T11:49:59.320Z,10.53
2017-10-16T11:52:27.618Z,12.53
2017-10-16T11:54:55.955Z,13.63
2017-10-16T11:57:25.032Z,11.90
2017-10-16T11:59:53.318Z,11.37
2017-10-16T12:02:21.679Z,17.57
2017-10-16T12:04:50.731Z,21.23
2017-10-16T12:07:19.036Z,10.77
2017-10-16T12:09:47.388Z,10.63
2017-10-16T12:12:16.454Z,10.90
2017-10-16T12:14:44.785Z,11.37
2017-10-16T12:17:13.504Z,11.60
2017-10-16T12:19:41.814Z,18.07
2017-10-16T12:22:10.090Z,11.40
2017-10-16T12:24:38.423Z,9.67
2017-10-16T12:27:06.710Z,10.23
2017-10-16T12:29:34.986Z,11.33
2017-10-16T12:32:03.343Z,9.77
2017-10-16T12:34:31.654Z,12.20
2017-10-16T12:37:01.471Z,9.90
2017-10-16T12:39:29.822Z,17.27
2017-10-16T12:41:58.174Z,10.80
2017-10-16T12:44:26.506Z,11.80
2017-10-16T12:46:55.646Z,14.30
2017-10-16T12:49:23.950Z,11.70
2017-10-16T12:51:52.231Z,11.87
2017-10-16T12:54:21.382Z,12.80
2017-10-16T12:56:49.695Z,15.60
2017-10-16T12:59:18.780Z,11.30
2017-10-16T13:01:47.894Z,8.03
2017-10-16T13:04:16.578Z,11.73
2017-10-16T13:06:45.501Z,13.17
2017-10-16T13:09:13.834Z,13.60
2017-10-16T13:11:42.883Z,16.60
2017-10-16T13:14:11.233Z,10.87
2017-10-16T13:16:40.192Z,10.37
2017-10-16T13:19:09.247Z,15.13
2017-10-16T13:21:37.559Z,13.40
2017-10-16T13:24:06.009Z,21.90
2017-10-16T13:26:34.311Z,17.23
2017-10-16T13:29:02.619Z,17.37
2017-10-16T13:31:31.004Z,14.73
2017-10-16T13:34:00.060Z,18.40
2017-10-16T13:36:29.291Z,17.83
2017-10-16T13:38:57.690Z,16.50
2017-10-16T13:41:27.500Z,13.27
2017-10-16T13:43:56.200Z,21.17
2017-10-16T13:46:25.356Z,10.70
2017-10-16T13:48:53.702Z,11.13
2017-10-16T13:51:24.434Z,10.67
2017-10-16T13:53:53.076Z,12.00
2017-10-16T13:56:21.522Z,23.87
2017-10-16T13:58:49.808Z,15.07
2017-10-16T14:01:18.555Z,17.00
2017-10-16T14:03:47.603Z,20.73
2017-10-16T14:06:15.929Z,17.10
2017-10-16T14:08:45.412Z,16.73
2017-10-16T14:11:14.107Z,21.07
2017-10-16T14:13:42.446Z,21.20
2017-10-16T14:16:11.958Z,15.30
2017-10-16T14:18:41.015Z,8.30
2017-10-16T14:21:10.638Z,9.70
2017-10-16T14:23:40.198Z,11.93
2017-10-16T14:26:08.358Z,14.50
2017-10-16T14:28:37.997Z,13.13
2017-10-16T14:31:06.626Z,12.00
2017-10-16T14:33:34.913Z,9.43
2017-10-16T14:36:03.198Z,12.30
2017-10-16T14:38:31.541Z,10.70
2017-10-16T14:41:00.988Z,10.33
2017-10-16T14:43:30.615Z,9.50
2017-10-16T14:46:00.346Z,14.60
2017-10-16T14:48:29.819Z,12.53
2017-10-16T14:50:58.162Z,11.77
2017-10-16T14:53:26.539Z,15.03
2017-10-16T14:55:55.623Z,12.63
2017-10-16T14:58:24.002Z,20.40
2017-10-16T15:00:53.838Z,19.97
2017-10-16T15:03:22.075Z,19.03
2017-10-16T15:05:50.389Z,13.13
2017-10-16T15:08:18.723Z,11.77
2017-10-16T15:10:48.236Z,14.70
2017-10-16T15:13:16.523Z,15.67
2017-10-16T15:15:45.151Z,16.77
2017-10-16T15:18:13.442Z,18.40
2017-10-16T15:20:41.735Z,19.77
2017-10-16T15:23:10.863Z,16.23
2017-10-16T15:25:39.908Z,15.43
2017-10-16T15:28:08.202Z,13.70
2017-10-16T15:30:37.654Z,22.10
2017-10-16T15:33:05.938Z,12.63
2017-10-16T15:35:34.291Z,17.43
2017-10-16T15:38:02.683Z,29.70
2017-10-16T15:40:31.903Z,35.67
2017-10-16T15:43:00.240Z,21.87
2017-10-16T15:45:29.055Z,32.37
2017-10-16T15:47:58.124Z,30.57
2017-10-16T15:50:26.550Z,17.80
2017-10-16T15:52:56.019Z,15.30
2017-10-16T15:55:24.424Z,19.33
2017-10-16T15:57:52.726Z,21.20
2017-10-16T16:00:21.069Z,37.20
2017-10-16T16:02:49.354Z,24.93
2017-10-16T16:05:17.647Z,22.40
2017-10-16T16:07:47.115Z,21.47
2017-10-16T16:10:15.414Z,22.07
2017-10-16T16:12:43.699Z,23.03
2017-10-16T16:15:12.026Z,14.33
2017-10-16T16:17:41.174Z,15.53
2017-10-16T16:20:09.482Z,16.77
2017-10-16T16:22:38.631Z,16.97
2017-10-16T16:25:07.827Z,18.83
2017-10-16T16:27:37.697Z,22.97
2017-10-16T16:30:06.047Z,16.70
2017-10-16T16:32:34.343Z,16.23
2017-10-16T16:35:02.636Z,20.53
2017-10-16T16:37:30.979Z,27.20
2017-10-16T16:40:00.131Z,27.10
2017-10-16T16:42:29.238Z,18.30
2017-10-16T16:44:57.622Z,23.37
2017-10-16T16:47:27.290Z,33.40
2017-10-16T16:49:55.455Z,23.53
2017-10-16T16:52:23.866Z,25.23
2017-10-16T16:54:54.281Z,19.10
2017-10-16T16:57:23.783Z,19.47
2017-10-16T16:59:52.100Z,18.60
2017-10-16T17:02:21.885Z,26.47
2017-10-16T17:04:51.602Z,16.70
2017-10-16T17:07:21.407Z,21.73
2017-10-16T17:09:51.048Z,20.40
2017-10-16T17:12:19.658Z,23.53
2017-10-16T17:14:49.337Z,38.67
2017-10-16T17:17:17.898Z,33.73
2017-10-16T17:19:46.988Z,28.80
2017-10-16T17:22:16.081Z,33.23
2017-10-16T17:24:44.384Z,20.50
2017-10-16T17:27:12.746Z,20.00
2017-10-16T17:29:42.570Z,16.70
2017-10-16T17:32:11.624Z,27.37
2017-10-16T17:34:41.448Z,17.50
2017-10-16T17:37:11.245Z,19.80
2017-10-16T17:39:39.532Z,24.30
2017-10-16T17:42:08.995Z,24.80
2017-10-16T17:44:37.279Z,16.07
2017-10-16T17:47:06.330Z,20.87
2017-10-16T17:49:36.045Z,21.70
2017-10-16T17:52:05.718Z,18.30
2017-10-16T17:54:34.011Z,29.10
2017-10-16T17:57:02.360Z,26.30
2017-10-16T17:59:31.423Z,25.53
2017-10-16T18:01:59.716Z,33.43
2017-10-16T18:04:28.055Z,27.30
2017-10-16T18:06:56.329Z,34.67
2017-10-16T18:09:24.620Z,35.43
2017-10-16T18:11:52.968Z,40.33
2017-10-16T18:14:22.830Z,37.10
2017-10-16T18:16:51.142Z,20.17
2017-10-16T18:19:19.490Z,21.27
2017-10-16T18:21:47.816Z,33.53
2017-10-16T18:24:16.146Z,33.93
2017-10-16T18:26:45.272Z,33.10
2017-10-16T18:29:14.339Z,26.87
2017-10-16T18:31:43.389Z,22.27
2017-10-16T18:34:13.125Z,16.80
2017-10-16T18:36:42.698Z,35.77
2017-10-16T18:39:11.669Z,29.80
2017-10-16T18:41:40.122Z,20.63
2017-10-16T18:44:08.408Z,18.73
2017-10-16T18:46:36.824Z,20.07
2017-10-16T18:49:05.230Z,20.70
2017-10-16T18:51:34.280Z,23.57
2017-10-16T18:54:02.710Z,17.37
2017-10-16T18:56:31.054Z,21.47
2017-10-16T18:58:59.429Z,20.47
2017-10-16T19:01:27.791Z,15.47
2017-10-16T19:03:56.141Z,20.80
2017-10-16T19:06:24.423Z,27.30
2017-10-16T19:11:54.349Z,23.33
2017-10-16T19:14:23.142Z,27.00
2017-10-16T19:16:51.643Z,36.13
2017-10-16T19:19:21.195Z,22.90
2017-10-16T19:21:49.509Z,26.07
2017-10-16T19:24:17.942Z,19.43
2017-10-16T19:26:46.290Z,16.00
2017-10-16T19:29:14.659Z,13.17
2017-10-16T19:31:43.027Z,14.50
2017-10-16T19:34:12.303Z,16.00
2017-10-16T19:36:40.627Z,12.03
2017-10-16T19:39:09.010Z,18.40
2017-10-16T19:41:37.440Z,11.63
2017-10-16T19:44:12.560Z,12.00
2017-10-16T19:46:41.627Z,13.13
2017-10-16T19:49:10.879Z,13.37
2017-10-16T19:51:39.954Z,14.10
2017-10-16T19:54:09.160Z,13.50
2017-10-16T19:56:37.479Z,17.80
2017-10-16T19:59:05.791Z,14.67
2017-10-16T20:01:34.136Z,14.77
2017-10-16T20:04:04.090Z,17.90
2017-10-16T20:06:32.400Z,15.00
2017-10-16T20:09:01.557Z,16.67
2017-10-16T20:11:29.999Z,17.87
2017-10-16T20:13:58.324Z,13.73
2017-10-16T20:16:27.071Z,15.00
2017-10-16T20:18:56.185Z,17.43
2017-10-16T20:21:25.732Z,17.83
2017-10-16T20:23:54.383Z,18.00
2017-10-16T20:26:23.071Z,22.47
2017-10-16T20:28:51.401Z,18.73
2017-10-16T20:31:19.770Z,20.37
2017-10-16T20:33:48.100Z,27.37
2017-10-16T20:36:16.670Z,27.80
2017-10-16T20:38:46.465Z,21.97
2017-10-16T20:41:15.808Z,19.60
2017-10-16T20:43:44.962Z,22.63
2017-10-16T20:46:14.206Z,23.07
2017-10-16T20:48:42.501Z,23.87
2017-10-16T20:51:10.851Z,19.80
2017-10-16T20:53:39.583Z,22.60
2017-10-16T20:56:07.875Z,17.20
2017-10-16T20:58:36.162Z,18.80
2017-10-16T21:01:04.511Z,19.97
2017-10-16T21:03:32.790Z,17.07
2017-10-16T21:06:01.082Z,19.63
2017-10-16T21:08:29.403Z,17.87
2017-10-16T21:10:58.484Z,18.43
2017-10-16T21:13:27.526Z,17.17
2017-10-16T21:15:56.087Z,25.60
2017-10-16T21:18:25.866Z,20.07
2017-10-16T21:20:54.150Z,20.47
2017-10-16T21:23:22.503Z,19.20
2017-10-16T21:25:51.191Z,20.37
2017-10-16T21:28:19.484Z,19.13
2017-10-16T21:30:47.816Z,19.40
2017-10-16T21:33:16.104Z,26.87
2017-10-16T21:35:44.389Z,24.27
2017-10-16T21:38:12.711Z,18.33
2017-10-16T21:40:40.994Z,17.90
2017-10-16T21:43:10.066Z,21.50
2017-10-16T21:45:38.437Z,26.83
2017-10-16T21:48:06.723Z,29.67
2017-10-16T21:50:35.010Z,30.80
2017-10-16T21:53:03.346Z,19.60
2017-10-16T21:55:32.431Z,17.10
2017-10-16T21:58:00.780Z,22.80
2017-10-16T22:00:29.115Z,26.23
2017-10-16T22:02:58.906Z,24.30
2017-10-16T22:05:27.199Z,27.97
2017-10-16T22:07:55.539Z,19.00
2017-10-16T22:10:23.818Z,20.57
2017-10-16T22:12:53.277Z,26.47
2017-10-16T22:15:21.590Z,23.27
2017-10-16T22:17:50.890Z,28.10
2017-10-16T22:20:20.682Z,27.43
2017-10-16T22:22:50.143Z,24.87
2017-10-16T22:25:18.479Z,22.83
2017-10-16T22:27:48.119Z,23.07
2017-10-16T22:30:16.323Z,21.23
2017-10-16T22:32:45.011Z,19.70
2017-10-16T22:35:13.299Z,20.47
2017-10-16T22:37:42.431Z,17.33
2017-10-16T22:40:10.706Z,17.50
2017-10-16T22:42:39.007Z,26.20
2017-10-16T22:45:07.356Z,19.97
2017-10-16T22:47:35.644Z,22.93
2017-10-16T22:50:03.694Z,20.23
2017-10-16T22:52:33.182Z,18.73
2017-10-16T22:55:01.467Z,23.30
2017-10-16T22:57:29.811Z,40.83
2017-10-16T22:59:58.428Z,39.67
2017-10-16T23:02:27.866Z,25.93
2017-10-16T23:04:56.146Z,19.53
2017-10-16T23:07:25.874Z,22.10
2017-10-16T23:09:54.034Z,21.33
2017-10-16T23:12:23.091Z,17.60
2017-10-16T23:14:52.219Z,19.37
2017-10-16T23:17:21.276Z,18.07
2017-10-16T23:19:49.616Z,19.50
2017-10-16T23:22:18.352Z,17.97
2017-10-16T23:24:47.989Z,18.10
2017-10-16T23:27:16.567Z,23.90
2017-10-16T23:29:44.926Z,21.57
2017-10-16T23:32:13.222Z,20.10
2017-10-16T23:34:41.513Z,18.37
2017-10-16T23:37:09.834Z,23.13
2017-10-16T23:39:39.286Z,25.03
2017-10-16T23:42:07.597Z,33.70
2017-10-16T23:44:35.911Z,31.20
2017-10-16T23:47:04.191Z,20.70
2017-10-16T23:49:32.475Z,24.53
2017-10-16T23:52:01.107Z,19.30
2017-10-16T23:54:29.790Z,18.67
2017-10-16T23:56:58.106Z,20.53
2017-10-16T23:59:27.202Z,19.20
